createdAt,value
2023-04-07T00:03:50.173Z,5.28
2023-04-07T00:07:56.852Z,5.21
2023-04-07T00:11:57.693Z,4.95
2023-04-07T00:15:58.054Z,5.10
2023-04-07T00:19:58.336Z,4.68
2023-04-07T00:24:01.225Z,4.93
2023-04-07T00:28:01.409Z,4.81
2023-04-07T00:32:01.773Z,4.81
2023-04-07T00:36:02.367Z,4.68
2023-04-07T00:40:05.342Z,4.90
2023-04-07T00:44:06.057Z,4.53
2023-04-07T00:48:07.059Z,4.85
2023-04-07T00:52:08.754Z,4.81
2023-04-07T00:56:11.967Z,5.00
2023-04-07T01:00:14.136Z,4.87
2023-04-07T01:04:29.738Z,4.96
2023-04-07T01:08:41.459Z,5.09
2023-04-07T01:12:55.872Z,4.56
2023-04-07T01:17:01.108Z,4.51
2023-04-07T01:21:09.455Z,4.50
2023-04-07T01:25:41.754Z,4.53
2023-04-07T01:29:50.795Z,4.55
2023-04-07T01:33:54.171Z,4.50
2023-04-07T01:37:58.242Z,4.41
2023-04-07T01:42:02.660Z,4.31
2023-04-07T01:46:07.593Z,4.21
2023-04-07T01:50:10.386Z,4.19
2023-04-07T01:54:12.489Z,4.01
2023-04-07T01:58:12.822Z,4.21
2023-04-07T02:02:18.858Z,4.27
2023-04-07T02:06:25.224Z,4.16
2023-04-07T02:10:29.986Z,4.17
2023-04-07T02:14:33.257Z,4.20
2023-04-07T02:18:41.943Z,4.16
2023-04-07T02:22:45.086Z,4.17
2023-04-07T02:26:46.396Z,4.17
2023-04-07T02:30:46.990Z,4.14
2023-04-07T02:34:49.793Z,4.03
2023-04-07T02:38:50.032Z,4.04
2023-04-07T02:42:50.504Z,3.91
2023-04-07T02:46:50.645Z,3.84
2023-04-07T02:50:53.563Z,3.86
2023-04-07T02:54:54.063Z,4.00
2023-04-07T02:58:58.254Z,4.05
2023-04-07T03:02:59.320Z,3.98
2023-04-07T03:07:05.014Z,3.81
2023-04-07T03:11:06.588Z,3.75
2023-04-07T03:15:08.102Z,3.64
2023-04-07T03:19:09.153Z,2.93
2023-04-07T03:23:16.252Z,3.70
2023-04-07T03:27:17.657Z,3.70
2023-04-07T03:31:20.580Z,3.56
2023-04-07T03:35:23.935Z,3.67
2023-04-07T03:39:27.038Z,3.52
2023-04-07T03:43:31.278Z,3.66
2023-04-07T03:47:31.832Z,3.61
2023-04-07T03:51:35.215Z,3.00
2023-04-07T03:55:42.003Z,3.40
2023-04-07T03:59:51.488Z,3.33
2023-04-07T04:03:53.587Z,3.32
2023-04-07T04:07:59.836Z,3.39
2023-04-07T04:12:04.092Z,3.44
2023-04-07T04:16:05.606Z,3.49
2023-04-07T04:20:07.953Z,3.72
2023-04-07T04:24:21.392Z,3.71
2023-04-07T04:28:25.083Z,3.60
2023-04-07T04:32:25.643Z,3.65
2023-04-07T04:36:26.549Z,3.45
2023-04-07T04:40:31.985Z,3.49
2023-04-07T04:44:35.533Z,3.40
2023-04-07T04:48:37.379Z,3.37
2023-04-07T04:52:40.802Z,3.11
2023-04-07T04:56:45.832Z,3.23
2023-04-07T05:00:48.763Z,3.20
2023-04-07T05:04:49.170Z,3.32
2023-04-07T05:08:58.809Z,3.12
2023-04-07T05:13:04.850Z,3.33
2023-04-07T05:17:07.738Z,3.56
2023-04-07T05:21:08.479Z,3.59
2023-04-07T05:25:12.470Z,3.68
2023-04-07T05:29:15.425Z,3.90
2023-04-07T05:33:18.471Z,3.96
2023-04-07T05:37:23.109Z,3.97
2023-04-07T05:41:23.972Z,3.99
2023-04-07T05:45:24.682Z,4.23
2023-04-07T05:49:27.958Z,4.07
2023-04-07T05:53:41.046Z,4.26
2023-04-07T05:57:42.437Z,4.74
2023-04-07T06:01:48.713Z,4.96
2023-04-07T06:05:52.695Z,5.14
2023-04-07T06:09:54.723Z,5.37
2023-04-07T06:13:54.953Z,5.57
2023-04-07T06:17:56.370Z,5.62
2023-04-07T06:22:00.792Z,5.87
2023-04-07T06:26:01.202Z,6.24
2023-04-07T06:30:03.144Z,6.30
2023-04-07T06:34:03.496Z,6.50
2023-04-07T06:38:06.550Z,6.79
2023-04-07T06:42:06.862Z,6.72
2023-04-07T06:46:12.367Z,6.92
2023-04-07T06:50:13.492Z,7.08
2023-04-07T06:54:16.471Z,7.35
2023-04-07T06:58:16.722Z,7.44
2023-04-07T07:02:17.002Z,7.49
2023-04-07T07:06:17.343Z,7.53
2023-04-07T07:10:20.728Z,8.01
2023-04-07T07:14:21.004Z,8.43
2023-04-07T07:18:22.329Z,8.64
2023-04-07T07:22:22.626Z,8.77
2023-04-07T07:26:26.499Z,9.12
2023-04-07T07:30:28.026Z,9.34
2023-04-07T07:34:28.402Z,9.83
2023-04-07T07:38:28.705Z,10.02
2023-04-07T07:42:32.613Z,10.12
2023-04-07T07:46:32.854Z,10.23
2023-04-07T07:50:33.446Z,10.46
2023-04-07T07:54:33.687Z,10.90
2023-04-07T07:58:36.734Z,11.40
2023-04-07T08:02:37.776Z,11.62
2023-04-07T08:06:38.298Z,12.32
2023-04-07T08:10:38.615Z,12.81
2023-04-07T08:14:41.510Z,13.43
2023-04-07T08:18:41.779Z,13.99
2023-04-07T08:22:43.259Z,14.41
2023-04-07T08:26:43.620Z,15.50
2023-04-07T08:30:46.628Z,16.04
2023-04-07T08:34:47.075Z,16.94
2023-04-07T08:38:47.225Z,16.91
2023-04-07T08:42:52.962Z,17.57
2023-04-07T08:47:01.040Z,17.69
2023-04-07T08:51:04.532Z,17.59
2023-04-07T08:55:07.171Z,18.42
2023-04-07T08:59:09.884Z,18.54
2023-04-07T09:03:14.177Z,18.40
2023-04-07T09:07:14.456Z,20.08
2023-04-07T09:22:01.153Z,20.98
2023-04-07T09:26:06.452Z,21.23
2023-04-07T09:30:16.475Z,21.38
2023-04-07T09:34:30.329Z,21.68
2023-04-07T09:38:44.649Z,21.35
2023-04-07T09:42:51.103Z,21.66
2023-04-07T09:46:56.653Z,22.58
2023-04-07T09:51:10.207Z,22.50
2023-04-07T09:55:14.995Z,23.26
2023-04-07T09:59:19.540Z,21.91
2023-04-07T10:03:21.304Z,22.24
2023-04-07T10:07:24.832Z,22.00
2023-04-07T10:11:35.738Z,21.48
2023-04-07T10:15:40.201Z,24.12
2023-04-07T10:19:42.187Z,25.06
2023-04-07T10:23:59.470Z,24.79
2023-04-07T10:28:09.840Z,25.96
2023-04-07T10:32:12.314Z,24.63
2023-04-07T10:36:13.064Z,23.43
2023-04-07T10:40:32.872Z,24.86
2023-04-07T10:44:54.916Z,26.09
2023-04-07T10:49:15.130Z,26.46
2023-04-07T10:53:19.031Z,26.19
2023-04-07T10:57:21.580Z,25.35
2023-04-07T11:01:25.310Z,26.40
2023-04-07T11:05:27.926Z,27.07
2023-04-07T11:09:28.378Z,28.00
2023-04-07T11:13:32.713Z,28.34
2023-04-07T11:17:37.881Z,26.84
2023-04-07T11:21:39.070Z,27.85
2023-04-07T11:25:41.965Z,27.38
2023-04-07T11:29:44.374Z,28.39
2023-04-07T11:33:57.857Z,28.30
2023-04-07T11:38:03.740Z,26.32
2023-04-07T11:42:06.960Z,23.88
2023-04-07T11:46:10.194Z,24.92
2023-04-07T11:50:15.154Z,26.26
2023-04-07T11:54:17.775Z,27.76
2023-04-07T11:58:20.248Z,29.02
2023-04-07T12:02:37.813Z,30.82
2023-04-07T12:06:42.801Z,31.58
2023-04-07T12:10:45.016Z,32.46
2023-04-07T12:14:45.534Z,33.16
2023-04-07T12:18:48.712Z,28.99
2023-04-07T12:22:51.749Z,29.88
2023-04-07T12:26:53.225Z,28.02
2023-04-07T12:30:54.168Z,27.69
2023-04-07T12:34:55.772Z,29.15
2023-04-07T12:39:01.475Z,31.00
2023-04-07T12:43:03.945Z,30.80
2023-04-07T12:47:06.890Z,29.62
2023-04-07T12:51:08.191Z,30.38
2023-04-07T12:55:15.238Z,29.75
2023-04-07T12:59:17.209Z,29.80
2023-04-07T13:03:18.100Z,30.06
2023-04-07T13:07:20.102Z,29.70
2023-04-07T13:11:24.881Z,27.68
2023-04-07T13:15:26.638Z,27.40
2023-04-07T13:19:30.436Z,26.56
2023-04-07T13:23:53.517Z,27.23
2023-04-07T13:27:56.720Z,27.38
2023-04-07T13:32:09.972Z,26.81
2023-04-07T13:36:10.992Z,26.15
2023-04-07T13:40:12.910Z,27.04
2023-04-07T13:44:15.658Z,27.04
2023-04-07T13:48:17.562Z,27.00
2023-04-07T13:52:20.228Z,25.71
2023-04-07T13:56:27.318Z,24.22
2023-04-07T14:00:36.048Z,23.37
2023-04-07T14:04:37.774Z,24.41
2023-04-07T14:08:40.184Z,24.98
2023-04-07T14:12:44.321Z,26.54
2023-04-07T14:16:48.552Z,27.78
2023-04-07T14:20:52.679Z,28.23
2023-04-07T14:24:57.799Z,28.79
2023-04-07T14:29:00.825Z,29.57
2023-04-07T14:33:10.263Z,30.01
2023-04-07T14:37:12.371Z,30.01
2023-04-07T14:41:15.606Z,31.17
2023-04-07T14:45:17.114Z,31.03
2023-04-07T14:49:23.338Z,31.20
2023-04-07T14:53:33.541Z,32.12
2023-04-07T14:57:40.005Z,32.63
2023-04-07T15:01:43.415Z,32.53
2023-04-07T15:05:52.527Z,33.11
2023-04-07T15:09:52.987Z,33.54
2023-04-07T15:13:53.323Z,33.07
2023-04-07T15:17:53.570Z,33.45
2023-04-07T15:21:56.753Z,31.50
2023-04-07T15:25:58.073Z,29.27
2023-04-07T15:29:58.916Z,28.82
2023-04-07T15:33:59.073Z,27.49
2023-04-07T15:38:01.855Z,26.09
2023-04-07T15:42:02.179Z,25.88
2023-04-07T15:46:02.638Z,25.63
2023-04-07T15:50:02.918Z,25.00
2023-04-07T15:54:05.989Z,25.45
2023-04-07T15:58:08.570Z,26.52
2023-04-07T16:02:09.211Z,26.41
2023-04-07T16:06:09.449Z,26.08
2023-04-07T16:10:14.029Z,26.08
2023-04-07T16:14:14.385Z,26.23
2023-04-07T16:18:14.905Z,25.72
2023-04-07T16:22:15.065Z,25.51
2023-04-07T16:26:17.759Z,25.39
2023-04-07T16:30:19.023Z,25.10
2023-04-07T16:34:19.286Z,24.88
2023-04-07T16:38:19.714Z,24.09
2023-04-07T16:42:22.469Z,23.60
2023-04-07T16:46:26.062Z,22.71
2023-04-07T16:50:26.439Z,22.20
2023-04-07T16:54:26.703Z,21.44
2023-04-07T16:58:29.530Z,21.04
2023-04-07T17:02:30.089Z,20.87
2023-04-07T17:06:30.540Z,20.81
2023-04-07T17:10:31.133Z,20.50
2023-04-07T17:14:34.008Z,20.03
2023-04-07T17:18:36.189Z,19.59
2023-04-07T17:22:36.634Z,19.51
2023-04-07T17:26:37.037Z,19.46
2023-04-07T17:30:40.243Z,19.07
2023-04-07T17:34:41.234Z,18.67
2023-04-07T17:38:41.585Z,18.53
2023-04-07T17:42:42.061Z,18.07
2023-04-07T17:46:44.935Z,17.51
2023-04-07T17:50:46.058Z,17.47
2023-04-07T17:54:46.423Z,16.78
2023-04-07T17:58:47.444Z,16.27
2023-04-07T18:02:50.429Z,16.26
2023-04-07T18:06:51.361Z,16.08
2023-04-07T18:10:51.793Z,15.79
2023-04-07T18:14:52.295Z,15.54
2023-04-07T18:18:55.511Z,15.49
2023-04-07T18:22:55.945Z,15.22
2023-04-07T18:26:56.958Z,15.20
2023-04-07T18:31:04.299Z,15.22
2023-04-07T18:35:08.174Z,14.75
2023-04-07T18:39:08.448Z,14.71
2023-04-07T18:43:08.641Z,14.03
2023-04-07T18:47:08.816Z,14.30
2023-04-07T18:51:12.080Z,14.03
2023-04-07T18:55:14.164Z,13.61
2023-04-07T18:59:14.834Z,13.60
2023-04-07T19:03:16.454Z,13.47
2023-04-07T19:07:19.605Z,13.86
2023-04-07T19:11:20.659Z,13.57
2023-04-07T19:15:21.607Z,13.59
2023-04-07T19:19:21.972Z,13.52
2023-04-07T19:23:25.590Z,13.53
2023-04-07T19:27:27.442Z,13.43
2023-04-07T19:31:28.228Z,13.41
2023-04-07T19:35:28.728Z,13.30
2023-04-07T19:39:31.916Z,13.10
2023-04-07T19:43:32.221Z,13.05
2023-04-07T19:47:32.595Z,13.13
2023-04-07T19:51:33.225Z,12.88
2023-04-07T19:55:36.171Z,12.50
2023-04-07T20:17:29.840Z,12.49
2023-04-07T20:27:17.392Z,12.25
2023-04-07T20:40:34.716Z,11.80
2023-04-07T20:54:56.807Z,11.38
2023-04-07T21:04:24.787Z,11.70
2023-04-07T21:09:03.245Z,11.43
2023-04-07T21:18:49.627Z,10.38
2023-04-07T21:29:00.650Z,11.23
2023-04-07T21:43:00.791Z,10.34
2023-04-07T21:47:32.396Z,10.40
2023-04-07T21:52:03.977Z,10.66
2023-04-07T21:56:33.985Z,10.11
2023-04-07T22:05:40.713Z,10.65
2023-04-07T22:09:41.493Z,10.22
2023-04-07T22:13:48.670Z,10.41
2023-04-07T22:17:48.922Z,10.42
2023-04-07T22:21:52.212Z,10.57
2023-04-07T22:25:52.832Z,10.85
2023-04-07T22:29:53.033Z,11.06
2023-04-07T22:33:53.207Z,11.04
2023-04-07T22:37:56.005Z,11.26
2023-04-07T22:41:56.378Z,11.06
2023-04-07T22:45:56.853Z,11.07
2023-04-07T22:49:57.694Z,11.18
2023-04-07T22:54:00.654Z,11.09
2023-04-07T22:58:00.999Z,11.09
2023-04-07T23:02:01.304Z,11.33
2023-04-07T23:06:02.811Z,11.37
2023-04-07T23:10:06.532Z,11.33
2023-04-07T23:14:07.705Z,11.28
2023-04-07T23:18:07.943Z,11.26
2023-04-07T23:22:08.102Z,11.14
2023-04-07T23:26:10.926Z,11.32
2023-04-07T23:30:13.187Z,11.25
2023-04-07T23:34:13.699Z,11.39
2023-04-07T23:38:13.835Z,11.19
2023-04-07T23:42:18.140Z,11.09
2023-04-07T23:46:19.217Z,11.23
2023-04-07T23:50:19.984Z,11.13
2023-04-07T23:54:20.136Z,11.19
2023-04-07T23:58:22.864Z,11.34
